sensor_id;sensor_type;location;lat;lon;timestamp;temperature;humidity
78054;DHT22;67726;45.636;11.752;2023-05-07T00:01:26;18.70;59.40
78054;DHT22;67726;45.636;11.752;2023-05-07T00:03:51;18.70;59.80
78054;DHT22;67726;45.636;11.752;2023-05-07T00:06:17;18.70;61.20
78054;DHT22;67726;45.636;11.752;2023-05-07T00:08:43;18.60;61.10
78054;DHT22;67726;45.636;11.752;2023-05-07T00:11:08;18.60;61.70
78054;DHT22;67726;45.636;11.752;2023-05-07T00:13:34;18.50;61.60
78054;DHT22;67726;45.636;11.752;2023-05-07T00:16:04;18.50;61.80
78054;DHT22;67726;45.636;11.752;2023-05-07T00:18:30;18.40;62.50
78054;DHT22;67726;45.636;11.752;2023-05-07T00:20:55;18.40;62.00
78054;DHT22;67726;45.636;11.752;2023-05-07T00:23:22;18.40;61.90
78054;DHT22;67726;45.636;11.752;2023-05-07T00:25:48;18.40;61.90
78054;DHT22;67726;45.636;11.752;2023-05-07T00:28:14;18.30;62.00
78054;DHT22;67726;45.636;11.752;2023-05-07T00:30:39;18.40;61.80
78054;DHT22;67726;45.636;11.752;2023-05-07T00:33:05;18.30;62.10
78054;DHT22;67726;45.636;11.752;2023-05-07T00:35:31;18.30;62.10
78054;DHT22;67726;45.636;11.752;2023-05-07T00:37:57;18.40;62.30
78054;DHT22;67726;45.636;11.752;2023-05-07T00:40:22;18.30;62.50
78054;DHT22;67726;45.636;11.752;2023-05-07T00:42:48;18.40;62.60
78054;DHT22;67726;45.636;11.752;2023-05-07T00:45:14;18.40;63.50
78054;DHT22;67726;45.636;11.752;2023-05-07T00:47:40;18.30;63.10
78054;DHT22;67726;45.636;11.752;2023-05-07T00:50:07;18.40;63.40
78054;DHT22;67726;45.636;11.752;2023-05-07T00:52:33;18.40;63.40
78054;DHT22;67726;45.636;11.752;2023-05-07T00:55:05;18.30;63.10
78054;DHT22;67726;45.636;11.752;2023-05-07T00:57:35;18.30;63.00
78054;DHT22;67726;45.636;11.752;2023-05-07T01:00:03;18.30;63.60
78054;DHT22;67726;45.636;11.752;2023-05-07T01:02:29;18.30;63.70
78054;DHT22;67726;45.636;11.752;2023-05-07T01:04:55;18.20;63.50
78054;DHT22;67726;45.636;11.752;2023-05-07T01:07:22;18.20;63.40
78054;DHT22;67726;45.636;11.752;2023-05-07T01:09:48;18.20;63.40
78054;DHT22;67726;45.636;11.752;2023-05-07T01:12:15;18.20;63.80
78054;DHT22;67726;45.636;11.752;2023-05-07T01:14:41;18.20;63.80
78054;DHT22;67726;45.636;11.752;2023-05-07T01:17:07;18.10;65.20
78054;DHT22;67726;45.636;11.752;2023-05-07T01:19:33;18.20;63.40
78054;DHT22;67726;45.636;11.752;2023-05-07T01:22:09;18.20;63.60
78054;DHT22;67726;45.636;11.752;2023-05-07T01:24:40;18.20;63.90
78054;DHT22;67726;45.636;11.752;2023-05-07T01:27:06;18.20;63.90
78054;DHT22;67726;45.636;11.752;2023-05-07T01:29:32;18.20;64.30
78054;DHT22;67726;45.636;11.752;2023-05-07T01:31:59;18.20;63.80
78054;DHT22;67726;45.636;11.752;2023-05-07T01:34:31;18.20;64.20
78054;DHT22;67726;45.636;11.752;2023-05-07T01:36:58;18.20;65.50
78054;DHT22;67726;45.636;11.752;2023-05-07T01:39:28;18.20;65.00
78054;DHT22;67726;45.636;11.752;2023-05-07T01:41:58;18.20;64.50
78054;DHT22;67726;45.636;11.752;2023-05-07T01:44:25;18.20;64.60
78054;DHT22;67726;45.636;11.752;2023-05-07T01:46:51;18.20;65.00
78054;DHT22;67726;45.636;11.752;2023-05-07T01:49:17;18.20;64.90
78054;DHT22;67726;45.636;11.752;2023-05-07T01:51:43;18.20;64.70
78054;DHT22;67726;45.636;11.752;2023-05-07T01:54:09;18.20;64.60
78054;DHT22;67726;45.636;11.752;2023-05-07T01:56:35;18.20;64.80
78054;DHT22;67726;45.636;11.752;2023-05-07T01:59:01;18.20;64.60
78054;DHT22;67726;45.636;11.752;2023-05-07T02:01:27;18.10;68.10
78054;DHT22;67726;45.636;11.752;2023-05-07T02:03:53;18.20;65.00
78054;DHT22;67726;45.636;11.752;2023-05-07T02:06:19;18.10;66.30
78054;DHT22;67726;45.636;11.752;2023-05-07T02:08:45;18.10;66.60
78054;DHT22;67726;45.636;11.752;2023-05-07T02:11:11;18.10;66.40
78054;DHT22;67726;45.636;11.752;2023-05-07T02:13:37;18.00;66.90
78054;DHT22;67726;45.636;11.752;2023-05-07T02:16:03;17.90;66.80
78054;DHT22;67726;45.636;11.752;2023-05-07T02:18:28;17.90;66.80
78054;DHT22;67726;45.636;11.752;2023-05-07T02:20:54;17.90;67.30
78054;DHT22;67726;45.636;11.752;2023-05-07T02:23:20;17.90;66.90
78054;DHT22;67726;45.636;11.752;2023-05-07T02:25:45;17.80;67.10
78054;DHT22;67726;45.636;11.752;2023-05-07T02:28:11;17.60;67.00
78054;DHT22;67726;45.636;11.752;2023-05-07T02:30:39;17.60;67.60
78054;DHT22;67726;45.636;11.752;2023-05-07T02:33:05;17.70;67.50
78054;DHT22;67726;45.636;11.752;2023-05-07T02:35:32;17.60;68.00
78054;DHT22;67726;45.636;11.752;2023-05-07T02:37:58;17.60;68.30
78054;DHT22;67726;45.636;11.752;2023-05-07T02:40:23;17.70;68.20
78054;DHT22;67726;45.636;11.752;2023-05-07T02:42:49;17.70;68.10
78054;DHT22;67726;45.636;11.752;2023-05-07T02:45:15;17.70;68.80
78054;DHT22;67726;45.636;11.752;2023-05-07T02:47:40;17.70;69.60
78054;DHT22;67726;45.636;11.752;2023-05-07T02:50:07;17.70;68.90
78054;DHT22;67726;45.636;11.752;2023-05-07T02:52:32;17.60;68.50
78054;DHT22;67726;45.636;11.752;2023-05-07T02:54:58;17.70;69.20
78054;DHT22;67726;45.636;11.752;2023-05-07T02:57:23;17.70;68.80
78054;DHT22;67726;45.636;11.752;2023-05-07T02:59:49;17.60;69.50
78054;DHT22;67726;45.636;11.752;2023-05-07T03:02:16;17.60;68.70
78054;DHT22;67726;45.636;11.752;2023-05-07T03:04:41;17.50;68.80
78054;DHT22;67726;45.636;11.752;2023-05-07T03:07:07;17.30;68.60
78054;DHT22;67726;45.636;11.752;2023-05-07T03:09:33;17.40;69.10
78054;DHT22;67726;45.636;11.752;2023-05-07T03:11:58;17.40;68.50
78054;DHT22;67726;45.636;11.752;2023-05-07T03:14:24;17.30;68.90
78054;DHT22;67726;45.636;11.752;2023-05-07T03:16:50;17.40;68.90
78054;DHT22;67726;45.636;11.752;2023-05-07T03:19:16;17.30;68.60
78054;DHT22;67726;45.636;11.752;2023-05-07T03:21:41;17.40;69.00
78054;DHT22;67726;45.636;11.752;2023-05-07T03:24:07;17.30;69.80
78054;DHT22;67726;45.636;11.752;2023-05-07T03:26:33;17.40;70.20
78054;DHT22;67726;45.636;11.752;2023-05-07T03:28:58;17.30;70.40
78054;DHT22;67726;45.636;11.752;2023-05-07T03:31:24;17.30;69.30
78054;DHT22;67726;45.636;11.752;2023-05-07T03:33:55;17.30;69.40
78054;DHT22;67726;45.636;11.752;2023-05-07T03:36:21;17.30;70.00
78054;DHT22;67726;45.636;11.752;2023-05-07T03:38:48;17.10;69.40
78054;DHT22;67726;45.636;11.752;2023-05-07T03:41:14;17.10;69.40
78054;DHT22;67726;45.636;11.752;2023-05-07T03:43:39;17.10;70.10
78054;DHT22;67726;45.636;11.752;2023-05-07T03:46:05;17.10;70.60
78054;DHT22;67726;45.636;11.752;2023-05-07T03:48:31;17.10;69.70
78054;DHT22;67726;45.636;11.752;2023-05-07T03:50:57;17.10;70.00
78054;DHT22;67726;45.636;11.752;2023-05-07T03:53:23;17.10;69.80
78054;DHT22;67726;45.636;11.752;2023-05-07T03:55:49;17.00;69.70
78054;DHT22;67726;45.636;11.752;2023-05-07T03:58:15;17.00;70.00
78054;DHT22;67726;45.636;11.752;2023-05-07T04:00:41;17.00;70.40
78054;DHT22;67726;45.636;11.752;2023-05-07T04:03:07;17.10;70.70
78054;DHT22;67726;45.636;11.752;2023-05-07T04:05:33;17.10;70.50
78054;DHT22;67726;45.636;11.752;2023-05-07T04:07:59;17.10;70.20
78054;DHT22;67726;45.636;11.752;2023-05-07T04:10:25;17.20;69.90
78054;DHT22;67726;45.636;11.752;2023-05-07T04:12:51;17.10;70.40
78054;DHT22;67726;45.636;11.752;2023-05-07T04:15:16;17.20;70.00
78054;DHT22;67726;45.636;11.752;2023-05-07T04:17:42;17.20;70.20
78054;DHT22;67726;45.636;11.752;2023-05-07T04:20:10;17.20;70.40
78054;DHT22;67726;45.636;11.752;2023-05-07T04:22:36;17.20;70.50
78054;DHT22;67726;45.636;11.752;2023-05-07T04:25:02;17.20;70.30
78054;DHT22;67726;45.636;11.752;2023-05-07T04:27:28;17.20;70.30
78054;DHT22;67726;45.636;11.752;2023-05-07T04:29:54;17.40;70.30
78054;DHT22;67726;45.636;11.752;2023-05-07T04:32:22;17.40;71.20
78054;DHT22;67726;45.636;11.752;2023-05-07T04:34:47;17.40;70.80
78054;DHT22;67726;45.636;11.752;2023-05-07T04:37:13;17.40;70.30
78054;DHT22;67726;45.636;11.752;2023-05-07T04:39:39;17.50;70.30
78054;DHT22;67726;45.636;11.752;2023-05-07T04:42:04;17.60;70.70
78054;DHT22;67726;45.636;11.752;2023-05-07T04:44:32;17.70;70.50
78054;DHT22;67726;45.636;11.752;2023-05-07T04:46:58;17.80;70.50
78054;DHT22;67726;45.636;11.752;2023-05-07T04:49:24;17.80;70.00
78054;DHT22;67726;45.636;11.752;2023-05-07T04:51:50;17.80;70.10
78054;DHT22;67726;45.636;11.752;2023-05-07T04:54:15;17.80;70.60
78054;DHT22;67726;45.636;11.752;2023-05-07T04:56:41;17.90;70.50
78054;DHT22;67726;45.636;11.752;2023-05-07T04:59:06;18.00;69.50
78054;DHT22;67726;45.636;11.752;2023-05-07T05:01:32;18.20;68.20
78054;DHT22;67726;45.636;11.752;2023-05-07T05:03:58;18.50;67.70
78054;DHT22;67726;45.636;11.752;2023-05-07T05:06:25;18.70;66.50
78054;DHT22;67726;45.636;11.752;2023-05-07T05:08:51;18.70;66.70
78054;DHT22;67726;45.636;11.752;2023-05-07T05:11:16;18.80;66.10
78054;DHT22;67726;45.636;11.752;2023-05-07T05:13:42;18.90;66.10
78054;DHT22;67726;45.636;11.752;2023-05-07T05:16:08;19.10;66.40
78054;DHT22;67726;45.636;11.752;2023-05-07T05:18:34;19.10;65.70
78054;DHT22;67726;45.636;11.752;2023-05-07T05:21:00;19.10;65.40
78054;DHT22;67726;45.636;11.752;2023-05-07T05:23:26;19.10;65.20
78054;DHT22;67726;45.636;11.752;2023-05-07T05:25:56;19.20;64.70
78054;DHT22;67726;45.636;11.752;2023-05-07T05:28:23;19.10;64.90
78054;DHT22;67726;45.636;11.752;2023-05-07T05:30:49;19.00;65.00
78054;DHT22;67726;45.636;11.752;2023-05-07T05:33:15;19.00;65.00
78054;DHT22;67726;45.636;11.752;2023-05-07T05:35:41;19.00;64.60
78054;DHT22;67726;45.636;11.752;2023-05-07T05:38:06;19.00;65.10
78054;DHT22;67726;45.636;11.752;2023-05-07T05:40:32;19.10;65.40
78054;DHT22;67726;45.636;11.752;2023-05-07T05:42:58;19.60;64.60
78054;DHT22;67726;45.636;11.752;2023-05-07T05:45:24;20.20;64.40
78054;DHT22;67726;45.636;11.752;2023-05-07T05:47:50;21.10;61.30
78054;DHT22;67726;45.636;11.752;2023-05-07T05:50:16;21.80;59.80
78054;DHT22;67726;45.636;11.752;2023-05-07T05:52:41;22.60;57.50
78054;DHT22;67726;45.636;11.752;2023-05-07T05:55:07;23.20;55.30
78054;DHT22;67726;45.636;11.752;2023-05-07T05:57:33;23.90;52.40
78054;DHT22;67726;45.636;11.752;2023-05-07T06:00:01;24.60;50.60
78054;DHT22;67726;45.636;11.752;2023-05-07T06:02:26;25.20;49.10
78054;DHT22;67726;45.636;11.752;2023-05-07T06:04:52;25.80;48.40
78054;DHT22;67726;45.636;11.752;2023-05-07T06:07:18;26.20;46.80
78054;DHT22;67726;45.636;11.752;2023-05-07T06:09:43;26.90;41.30
78054;DHT22;67726;45.636;11.752;2023-05-07T06:12:09;27.30;42.50
78054;DHT22;67726;45.636;11.752;2023-05-07T06:14:35;27.60;41.60
78054;DHT22;67726;45.636;11.752;2023-05-07T06:17:00;28.00;39.70
78054;DHT22;67726;45.636;11.752;2023-05-07T06:19:26;28.40;40.20
78054;DHT22;67726;45.636;11.752;2023-05-07T06:21:53;28.70;39.60
78054;DHT22;67726;45.636;11.752;2023-05-07T06:24:19;29.10;37.70
78054;DHT22;67726;45.636;11.752;2023-05-07T06:26:45;29.50;37.60
78054;DHT22;67726;45.636;11.752;2023-05-07T06:29:10;29.70;37.20
78054;DHT22;67726;45.636;11.752;2023-05-07T06:31:36;29.80;35.10
78054;DHT22;67726;45.636;11.752;2023-05-07T06:34:01;30.30;34.00
78054;DHT22;67726;45.636;11.752;2023-05-07T06:36:28;30.20;35.10
78054;DHT22;67726;45.636;11.752;2023-05-07T06:38:53;30.70;35.40
78054;DHT22;67726;45.636;11.752;2023-05-07T06:41:20;30.90;34.70
78054;DHT22;67726;45.636;11.752;2023-05-07T06:43:46;30.90;33.40
78054;DHT22;67726;45.636;11.752;2023-05-07T06:46:11;31.10;32.10
78054;DHT22;67726;45.636;11.752;2023-05-07T06:48:37;31.30;34.10
78054;DHT22;67726;45.636;11.752;2023-05-07T06:51:02;31.50;33.80
78054;DHT22;67726;45.636;11.752;2023-05-07T06:53:28;31.90;32.60
78054;DHT22;67726;45.636;11.752;2023-05-07T06:55:56;32.30;31.70
78054;DHT22;67726;45.636;11.752;2023-05-07T06:58:22;32.70;31.10
78054;DHT22;67726;45.636;11.752;2023-05-07T07:00:47;32.80;30.10
78054;DHT22;67726;45.636;11.752;2023-05-07T07:03:13;33.00;29.70
78054;DHT22;67726;45.636;11.752;2023-05-07T07:05:41;33.20;29.10
78054;DHT22;67726;45.636;11.752;2023-05-07T07:08:08;33.30;28.20
78054;DHT22;67726;45.636;11.752;2023-05-07T07:10:33;33.10;27.90
78054;DHT22;67726;45.636;11.752;2023-05-07T07:12:59;33.40;28.00
78054;DHT22;67726;45.636;11.752;2023-05-07T07:15:25;33.90;26.80
78054;DHT22;67726;45.636;11.752;2023-05-07T07:17:51;34.70;25.30
78054;DHT22;67726;45.636;11.752;2023-05-07T07:20:17;35.40;24.40
78054;DHT22;67726;45.636;11.752;2023-05-07T07:22:42;35.90;22.40
78054;DHT22;67726;45.636;11.752;2023-05-07T07:25:09;36.60;21.00
78054;DHT22;67726;45.636;11.752;2023-05-07T07:27:34;36.00;18.80
78054;DHT22;67726;45.636;11.752;2023-05-07T07:30:00;36.00;20.00
78054;DHT22;67726;45.636;11.752;2023-05-07T07:32:26;34.70;21.20
78054;DHT22;67726;45.636;11.752;2023-05-07T07:34:51;33.90;21.70
78054;DHT22;67726;45.636;11.752;2023-05-07T07:37:17;33.70;22.50
78054;DHT22;67726;45.636;11.752;2023-05-07T07:39:43;34.30;22.70
78054;DHT22;67726;45.636;11.752;2023-05-07T07:42:08;34.70;21.60
78054;DHT22;67726;45.636;11.752;2023-05-07T07:44:34;35.00;20.20
78054;DHT22;67726;45.636;11.752;2023-05-07T07:47:00;35.40;19.90
78054;DHT22;67726;45.636;11.752;2023-05-07T07:49:26;35.00;21.10
78054;DHT22;67726;45.636;11.752;2023-05-07T07:51:52;35.80;20.50
78054;DHT22;67726;45.636;11.752;2023-05-07T07:54:17;35.80;18.60
78054;DHT22;67726;45.636;11.752;2023-05-07T07:56:43;35.90;19.30
78054;DHT22;67726;45.636;11.752;2023-05-07T07:59:09;35.40;18.80
78054;DHT22;67726;45.636;11.752;2023-05-07T08:01:34;34.30;19.20
78054;DHT22;67726;45.636;11.752;2023-05-07T08:04:00;31.60;22.70
78054;DHT22;67726;45.636;11.752;2023-05-07T08:06:28;31.00;23.90
78054;DHT22;67726;45.636;11.752;2023-05-07T08:08:54;29.70;26.10
78054;DHT22;67726;45.636;11.752;2023-05-07T08:11:20;28.20;28.60
78054;DHT22;67726;45.636;11.752;2023-05-07T08:13:46;28.30;29.10
78054;DHT22;67726;45.636;11.752;2023-05-07T08:16:12;28.00;29.60
78054;DHT22;67726;45.636;11.752;2023-05-07T08:18:37;27.90;29.70
78054;DHT22;67726;45.636;11.752;2023-05-07T08:21:03;27.70;30.50
78054;DHT22;67726;45.636;11.752;2023-05-07T08:23:29;27.20;30.80
78054;DHT22;67726;45.636;11.752;2023-05-07T08:25:56;27.40;30.90
78054;DHT22;67726;45.636;11.752;2023-05-07T08:28:21;26.60;31.70
78054;DHT22;67726;45.636;11.752;2023-05-07T08:30:47;25.70;34.30
78054;DHT22;67726;45.636;11.752;2023-05-07T08:33:13;26.00;33.90
78054;DHT22;67726;45.636;11.752;2023-05-07T08:35:39;26.20;33.70
78054;DHT22;67726;45.636;11.752;2023-05-07T08:38:04;26.40;33.20
78054;DHT22;67726;45.636;11.752;2023-05-07T08:40:37;26.10;34.90
78054;DHT22;67726;45.636;11.752;2023-05-07T08:43:05;26.30;34.10
78054;DHT22;67726;45.636;11.752;2023-05-07T08:45:33;26.40;32.70
78054;DHT22;67726;45.636;11.752;2023-05-07T08:48:01;26.50;32.80
78054;DHT22;67726;45.636;11.752;2023-05-07T08:50:27;26.50;31.70
78054;DHT22;67726;45.636;11.752;2023-05-07T08:52:53;26.90;32.10
78054;DHT22;67726;45.636;11.752;2023-05-07T08:55:19;27.30;31.20
78054;DHT22;67726;45.636;11.752;2023-05-07T08:57:45;27.50;29.30
78054;DHT22;67726;45.636;11.752;2023-05-07T09:00:11;27.30;30.90
78054;DHT22;67726;45.636;11.752;2023-05-07T09:02:37;27.50;29.10
78054;DHT22;67726;45.636;11.752;2023-05-07T09:05:03;27.90;28.00
78054;DHT22;67726;45.636;11.752;2023-05-07T09:07:30;28.20;27.30
78054;DHT22;67726;45.636;11.752;2023-05-07T09:09:56;28.50;26.50
78054;DHT22;67726;45.636;11.752;2023-05-07T09:12:22;28.80;26.80
78054;DHT22;67726;45.636;11.752;2023-05-07T09:14:49;29.30;26.10
78054;DHT22;67726;45.636;11.752;2023-05-07T09:17:16;29.50;27.20
78054;DHT22;67726;45.636;11.752;2023-05-07T09:19:46;29.50;27.00
78054;DHT22;67726;45.636;11.752;2023-05-07T09:22:12;29.50;27.00
78054;DHT22;67726;45.636;11.752;2023-05-07T09:24:38;29.40;27.00
78054;DHT22;67726;45.636;11.752;2023-05-07T09:27:04;29.70;27.20
78054;DHT22;67726;45.636;11.752;2023-05-07T09:29:30;30.20;26.70
78054;DHT22;67726;45.636;11.752;2023-05-07T09:32:08;30.50;24.20
78054;DHT22;67726;45.636;11.752;2023-05-07T09:34:35;30.90;24.50
78054;DHT22;67726;45.636;11.752;2023-05-07T09:37:06;31.40;24.70
78054;DHT22;67726;45.636;11.752;2023-05-07T09:39:43;31.80;23.00
78054;DHT22;67726;45.636;11.752;2023-05-07T09:42:09;31.90;22.10
78054;DHT22;67726;45.636;11.752;2023-05-07T09:44:36;31.90;20.80
78054;DHT22;67726;45.636;11.752;2023-05-07T09:47:04;31.70;22.80
78054;DHT22;67726;45.636;11.752;2023-05-07T09:49:37;30.50;23.20
78054;DHT22;67726;45.636;11.752;2023-05-07T09:52:05;30.60;24.10
78054;DHT22;67726;45.636;11.752;2023-05-07T09:54:35;31.10;23.40
78054;DHT22;67726;45.636;11.752;2023-05-07T09:57:04;31.80;23.80
78054;DHT22;67726;45.636;11.752;2023-05-07T09:59:31;31.90;21.30
78054;DHT22;67726;45.636;11.752;2023-05-07T10:01:58;32.10;22.10
78054;DHT22;67726;45.636;11.752;2023-05-07T10:04:25;33.00;20.90
78054;DHT22;67726;45.636;11.752;2023-05-07T10:06:52;33.80;18.80
78054;DHT22;67726;45.636;11.752;2023-05-07T10:09:19;33.70;18.90
78054;DHT22;67726;45.636;11.752;2023-05-07T10:11:45;34.10;18.20
78054;DHT22;67726;45.636;11.752;2023-05-07T10:14:11;34.30;17.90
78054;DHT22;67726;45.636;11.752;2023-05-07T10:16:37;34.30;18.70
78054;DHT22;67726;45.636;11.752;2023-05-07T10:19:06;33.00;20.10
78054;DHT22;67726;45.636;11.752;2023-05-07T10:21:36;33.20;19.80
78054;DHT22;67726;45.636;11.752;2023-05-07T10:24:06;32.40;21.00
78054;DHT22;67726;45.636;11.752;2023-05-07T10:26:36;33.80;19.70
78054;DHT22;67726;45.636;11.752;2023-05-07T10:29:07;35.30;18.60
78054;DHT22;67726;45.636;11.752;2023-05-07T10:31:55;36.50;16.80
78054;DHT22;67726;45.636;11.752;2023-05-07T10:34:28;36.90;16.40
78054;DHT22;67726;45.636;11.752;2023-05-07T10:36:55;37.80;15.80
78054;DHT22;67726;45.636;11.752;2023-05-07T10:39:22;37.50;15.00
78054;DHT22;67726;45.636;11.752;2023-05-07T10:41:48;36.90;16.60
78054;DHT22;67726;45.636;11.752;2023-05-07T10:44:29;37.50;15.90
78054;DHT22;67726;45.636;11.752;2023-05-07T10:47:16;37.90;15.70
78054;DHT22;67726;45.636;11.752;2023-05-07T10:52:17;35.90;17.20
78054;DHT22;67726;45.636;11.752;2023-05-07T10:54:43;34.70;18.00
78054;DHT22;67726;45.636;11.752;2023-05-07T10:59:57;34.10;19.00
78054;DHT22;67726;45.636;11.752;2023-05-07T11:02:23;34.30;18.90
78054;DHT22;67726;45.636;11.752;2023-05-07T11:05:18;34.40;19.30
78054;DHT22;67726;45.636;11.752;2023-05-07T11:07:54;35.00;17.90
78054;DHT22;67726;45.636;11.752;2023-05-07T11:10:21;35.00;18.10
78054;DHT22;67726;45.636;11.752;2023-05-07T11:12:50;33.90;19.50
78054;DHT22;67726;45.636;11.752;2023-05-07T11:15:34;33.70;19.50
78054;DHT22;67726;45.636;11.752;2023-05-07T11:18:00;33.50;20.10
78054;DHT22;67726;45.636;11.752;2023-05-07T11:20:56;33.40;20.70
78054;DHT22;67726;45.636;11.752;2023-05-07T11:26:05;33.00;22.30
78054;DHT22;67726;45.636;11.752;2023-05-07T11:28:36;33.20;21.90
78054;DHT22;67726;45.636;11.752;2023-05-07T11:31:03;32.40;22.70
78054;DHT22;67726;45.636;11.752;2023-05-07T11:33:30;32.40;22.50
78054;DHT22;67726;45.636;11.752;2023-05-07T11:35:56;32.60;22.50
78054;DHT22;67726;45.636;11.752;2023-05-07T11:38:22;32.90;22.50
78054;DHT22;67726;45.636;11.752;2023-05-07T11:40:59;33.10;22.30
78054;DHT22;67726;45.636;11.752;2023-05-07T11:43:30;33.40;21.70
78054;DHT22;67726;45.636;11.752;2023-05-07T11:46:08;33.40;22.40
78054;DHT22;67726;45.636;11.752;2023-05-07T11:48:34;33.50;22.00
78054;DHT22;67726;45.636;11.752;2023-05-07T11:51:00;33.90;22.40
78054;DHT22;67726;45.636;11.752;2023-05-07T11:53:27;34.20;22.00
78054;DHT22;67726;45.636;11.752;2023-05-07T11:55:56;34.40;20.30
78054;DHT22;67726;45.636;11.752;2023-05-07T11:58:24;34.60;20.00
78054;DHT22;67726;45.636;11.752;2023-05-07T12:00:52;34.80;20.00
78054;DHT22;67726;45.636;11.752;2023-05-07T12:03:18;34.90;20.20
78054;DHT22;67726;45.636;11.752;2023-05-07T12:05:45;35.10;19.60
78054;DHT22;67726;45.636;11.752;2023-05-07T12:08:17;34.80;19.40
78054;DHT22;67726;45.636;11.752;2023-05-07T12:10:44;34.70;19.50
78054;DHT22;67726;45.636;11.752;2023-05-07T12:13:21;34.70;19.70
78054;DHT22;67726;45.636;11.752;2023-05-07T12:15:54;34.60;20.20
78054;DHT22;67726;45.636;11.752;2023-05-07T12:18:21;34.80;19.70
78054;DHT22;67726;45.636;11.752;2023-05-07T12:20:47;35.10;19.60
78054;DHT22;67726;45.636;11.752;2023-05-07T12:23:13;35.60;19.30
78054;DHT22;67726;45.636;11.752;2023-05-07T12:25:40;36.20;19.60
78054;DHT22;67726;45.636;11.752;2023-05-07T12:28:13;35.70;18.70
78054;DHT22;67726;45.636;11.752;2023-05-07T12:30:39;35.00;19.20
78054;DHT22;67726;45.636;11.752;2023-05-07T12:33:05;34.70;19.60
78054;DHT22;67726;45.636;11.752;2023-05-07T12:35:35;34.00;20.70
78054;DHT22;67726;45.636;11.752;2023-05-07T12:38:01;33.70;21.00
78054;DHT22;67726;45.636;11.752;2023-05-07T12:43:15;33.70;21.10
78054;DHT22;67726;45.636;11.752;2023-05-07T12:45:42;33.70;21.20
78054;DHT22;67726;45.636;11.752;2023-05-07T12:48:10;33.80;21.40
78054;DHT22;67726;45.636;11.752;2023-05-07T12:50:36;33.60;21.10
78054;DHT22;67726;45.636;11.752;2023-05-07T12:53:04;32.40;22.60
78054;DHT22;67726;45.636;11.752;2023-05-07T12:55:45;32.60;22.60
78054;DHT22;67726;45.636;11.752;2023-05-07T12:58:21;32.90;22.50
78054;DHT22;67726;45.636;11.752;2023-05-07T13:00:50;32.90;22.30
78054;DHT22;67726;45.636;11.752;2023-05-07T13:03:30;33.30;22.00
78054;DHT22;67726;45.636;11.752;2023-05-07T13:05:59;32.80;22.00
78054;DHT22;67726;45.636;11.752;2023-05-07T13:08:30;33.00;22.10
78054;DHT22;67726;45.636;11.752;2023-05-07T13:10:58;33.30;21.30
78054;DHT22;67726;45.636;11.752;2023-05-07T13:13:24;33.80;21.20
78054;DHT22;67726;45.636;11.752;2023-05-07T13:15:50;32.70;22.50
78054;DHT22;67726;45.636;11.752;2023-05-07T13:18:16;32.30;22.80
78054;DHT22;67726;45.636;11.752;2023-05-07T13:20:41;32.50;22.10
78054;DHT22;67726;45.636;11.752;2023-05-07T13:23:07;32.40;21.90
78054;DHT22;67726;45.636;11.752;2023-05-07T13:25:33;32.50;22.00
78054;DHT22;67726;45.636;11.752;2023-05-07T13:27:58;32.40;22.20
78054;DHT22;67726;45.636;11.752;2023-05-07T13:30:24;31.60;24.00
78054;DHT22;67726;45.636;11.752;2023-05-07T13:32:50;32.10;23.00
78054;DHT22;67726;45.636;11.752;2023-05-07T13:35:17;32.70;22.20
78054;DHT22;67726;45.636;11.752;2023-05-07T13:37:43;32.80;22.00
78054;DHT22;67726;45.636;11.752;2023-05-07T13:40:09;33.30;21.40
78054;DHT22;67726;45.636;11.752;2023-05-07T13:42:34;33.00;21.30
78054;DHT22;67726;45.636;11.752;2023-05-07T13:45:00;33.10;21.40
78054;DHT22;67726;45.636;11.752;2023-05-07T13:47:26;33.80;21.40
78054;DHT22;67726;45.636;11.752;2023-05-07T13:49:52;33.80;21.50
78054;DHT22;67726;45.636;11.752;2023-05-07T13:52:17;33.50;21.60
78054;DHT22;67726;45.636;11.752;2023-05-07T13:54:43;33.60;22.00
78054;DHT22;67726;45.636;11.752;2023-05-07T13:57:09;33.00;22.20
78054;DHT22;67726;45.636;11.752;2023-05-07T13:59:34;32.70;22.50
78054;DHT22;67726;45.636;11.752;2023-05-07T14:02:00;31.30;25.00
78054;DHT22;67726;45.636;11.752;2023-05-07T14:04:26;31.80;25.00
78054;DHT22;67726;45.636;11.752;2023-05-07T14:06:51;32.00;24.00
78054;DHT22;67726;45.636;11.752;2023-05-07T14:09:17;32.20;23.90
78054;DHT22;67726;45.636;11.752;2023-05-07T14:11:42;32.70;23.10
78054;DHT22;67726;45.636;11.752;2023-05-07T14:14:08;32.90;23.00
78054;DHT22;67726;45.636;11.752;2023-05-07T14:16:36;32.30;23.70
78054;DHT22;67726;45.636;11.752;2023-05-07T14:19:02;32.30;23.70
78054;DHT22;67726;45.636;11.752;2023-05-07T14:21:28;32.60;23.90
78054;DHT22;67726;45.636;11.752;2023-05-07T14:23:53;32.50;23.90
78054;DHT22;67726;45.636;11.752;2023-05-07T14:26:20;32.50;24.10
78054;DHT22;67726;45.636;11.752;2023-05-07T14:28:46;32.80;23.90
78054;DHT22;67726;45.636;11.752;2023-05-07T14:31:12;32.90;23.90
78054;DHT22;67726;45.636;11.752;2023-05-07T14:33:38;32.80;23.40
78054;DHT22;67726;45.636;11.752;2023-05-07T14:36:03;32.60;23.50
78054;DHT22;67726;45.636;11.752;2023-05-07T14:38:30;32.50;24.10
78054;DHT22;67726;45.636;11.752;2023-05-07T14:40:55;31.30;25.60
78054;DHT22;67726;45.636;11.752;2023-05-07T14:43:22;30.30;27.00
78054;DHT22;67726;45.636;11.752;2023-05-07T14:45:47;30.20;27.30
78054;DHT22;67726;45.636;11.752;2023-05-07T14:48:13;30.50;27.20
78054;DHT22;67726;45.636;11.752;2023-05-07T14:50:41;30.80;26.50
78054;DHT22;67726;45.636;11.752;2023-05-07T14:53:07;30.60;27.00
78054;DHT22;67726;45.636;11.752;2023-05-07T14:55:34;30.30;28.00
78054;DHT22;67726;45.636;11.752;2023-05-07T14:57:59;29.70;28.60
78054;DHT22;67726;45.636;11.752;2023-05-07T15:00:25;29.70;28.90
78054;DHT22;67726;45.636;11.752;2023-05-07T15:02:51;29.20;29.30
78054;DHT22;67726;45.636;11.752;2023-05-07T15:05:17;29.10;28.80
78054;DHT22;67726;45.636;11.752;2023-05-07T15:07:44;29.30;28.50
78054;DHT22;67726;45.636;11.752;2023-05-07T15:10:10;29.40;28.40
78054;DHT22;67726;45.636;11.752;2023-05-07T15:12:36;29.20;27.50
78054;DHT22;67726;45.636;11.752;2023-05-07T15:15:01;29.30;27.10
78054;DHT22;67726;45.636;11.752;2023-05-07T15:17:27;29.10;28.30
78054;DHT22;67726;45.636;11.752;2023-05-07T15:19:53;29.10;28.40
78054;DHT22;67726;45.636;11.752;2023-05-07T15:22:19;29.10;28.40
78054;DHT22;67726;45.636;11.752;2023-05-07T15:24:46;29.10;28.60